Time;durP1;ratioP1;P1;durP2;ratioP2;P2;SDS_P1;SDS_P2;PMS_P1;PMS_P2;Temp;Humidity;BMP_temperature;BMP_pressure;BME280_temperature;BME280_humidity;BME280_pressure;Samples;Min_cycle;Max_cycle;Signal;HPM_P1;HPM_P2
2023/02/19 00:01:24;;;;;;;7.25;1.20;;;8.30;99.90;;;;;;6220850;23;20004;-93
2023/02/19 00:03:56;;;;;;;1.95;1.08;;;8.30;99.90;;;;;;6220686;23;20027;-93
2023/02/19 00:06:23;;;;;;;5.68;1.20;;;8.30;99.90;;;;;;6220872;23;20092;-94
2023/02/19 00:08:49;;;;;;;3.65;1.20;;;8.30;99.90;;;;;;6214911;23;20462;-92
2023/02/19 00:11:21;;;;;;;3.65;0.90;;;8.30;99.90;;;;;;6217039;23;20001;-91
2023/02/19 00:13:49;;;;;;;3.13;1.13;;;8.30;99.90;;;;;;6216820;23;20015;-92
2023/02/19 00:16:27;;;;;;;5.45;1.27;;;8.30;99.90;;;;;;6216770;23;20089;-92
2023/02/19 00:18:54;;;;;;;7.57;1.55;;;8.30;99.90;;;;;;6215269;23;20009;-94
2023/02/19 00:21:20;;;;;;;9.55;1.70;;;8.30;99.90;;;;;;6215375;23;20088;-93
2023/02/19 00:23:50;;;;;;;4.07;1.45;;;8.30;99.90;;;;;;6215218;23;20032;-93
2023/02/19 00:26:16;;;;;;;9.98;1.88;;;8.30;99.90;;;;;;6215207;23;20443;-92
2023/02/19 00:28:42;;;;;;;8.05;2.28;;;8.30;99.90;;;;;;6215585;23;20004;-94
2023/02/19 00:31:20;;;;;;;7.78;1.70;;;8.30;99.90;;;;;;6215804;23;20043;-93
2023/02/19 00:33:47;;;;;;;6.05;1.83;;;8.30;99.90;;;;;;6217262;23;20016;-92
2023/02/19 00:36:13;;;;;;;11.35;2.08;;;8.30;99.90;;;;;;6214833;23;20416;-93
2023/02/19 00:38:40;;;;;;;6.63;1.55;;;8.30;99.90;;;;;;6214536;23;20051;-93
2023/02/19 00:41:18;;;;;;;5.22;1.60;;;8.30;99.90;;;;;;6215324;23;20019;-93
2023/02/19 00:44:04;;;;;;;10.98;2.00;;;8.30;99.90;;;;;;6214994;23;20092;-91
2023/02/19 00:46:31;;;;;;;5.90;1.73;;;8.40;99.90;;;;;;6214609;23;20012;-92
2023/02/19 00:48:57;;;;;;;10.50;1.85;;;8.40;99.90;;;;;;6216173;23;20015;-92
2023/02/19 00:51:26;;;;;;;7.40;1.80;;;8.40;99.90;;;;;;6214793;23;20005;-92
2023/02/19 00:53:52;;;;;;;5.30;1.70;;;8.40;99.90;;;;;;6214645;23;20008;-92
2023/02/19 00:56:18;;;;;;;7.20;1.90;;;8.40;99.90;;;;;;6214918;23;20008;-91
2023/02/19 00:58:44;;;;;;;8.07;2.25;;;8.40;99.90;;;;;;6214694;23;20365;-92
2023/02/19 01:01:10;;;;;;;12.20;2.45;;;8.40;99.90;;;;;;6214801;23;20340;-92
2023/02/19 01:03:37;;;;;;;5.35;2.60;;;8.40;99.90;;;;;;6214654;23;20004;-91
2023/02/19 01:06:04;;;;;;;10.00;1.60;;;8.40;99.90;;;;;;6215126;23;20007;-89
2023/02/19 01:08:30;;;;;;;7.85;2.30;;;8.40;99.90;;;;;;6214591;23;20104;-91
2023/02/19 01:10:57;;;;;;;4.35;1.30;;;8.40;99.90;;;;;;6214702;23;20510;-92
2023/02/19 01:13:23;;;;;;;8.70;1.60;;;8.40;99.90;;;;;;6214426;23;20092;-90
2023/02/19 01:15:49;;;;;;;5.38;1.42;;;8.30;99.90;;;;;;6214548;23;20071;-91
2023/02/19 01:18:14;;;;;;;5.10;1.70;;;8.40;99.90;;;;;;6223394;23;20008;-89
2023/02/19 01:20:43;;;;;;;5.45;1.77;;;8.40;99.90;;;;;;6219732;23;20019;-91
2023/02/19 01:23:10;;;;;;;9.95;1.77;;;8.40;99.90;;;;;;6216768;23;20007;-90
2023/02/19 01:25:40;;;;;;;8.73;1.63;;;8.30;99.90;;;;;;6215001;23;20016;-90
2023/02/19 01:28:07;;;;;;;8.43;1.65;;;8.30;99.90;;;;;;6225164;23;20001;-92
2023/02/19 01:30:35;;;;;;;3.83;1.50;;;8.30;99.90;;;;;;6231388;23;20013;-91
2023/02/19 01:33:07;;;;;;;7.05;1.77;;;8.30;99.90;;;;;;6225058;23;20007;-91
2023/02/19 01:35:37;;;;;;;6.70;1.30;;;8.30;99.90;;;;;;6214782;23;20428;-92
2023/02/19 01:38:02;;;;;;;4.95;1.48;;;8.30;99.90;;;;;;6214619;23;20008;-91
2023/02/19 01:40:28;;;;;;;6.90;1.58;;;8.30;99.90;;;;;;6214327;23;20016;-92
2023/02/19 01:42:54;;;;;;;6.80;1.58;;;8.30;99.90;;;;;;6214008;23;20028;-92
2023/02/19 01:45:22;;;;;;;5.15;1.25;;;8.30;99.90;;;;;;6213737;23;20004;-93
2023/02/19 01:47:55;;;;;;;5.82;2.00;;;8.20;99.90;;;;;;6216306;23;20005;-91
2023/02/19 01:50:21;;;;;;;5.00;1.98;;;8.20;99.90;;;;;;6216730;23;20445;-91
2023/02/19 01:52:47;;;;;;;5.90;1.20;;;8.20;99.90;;;;;;6216525;23;20432;-90
2023/02/19 01:55:13;;;;;;;4.60;1.25;;;8.20;99.90;;;;;;6216751;23;20078;-89
2023/02/19 01:57:44;;;;;;;7.20;1.48;;;8.10;99.90;;;;;;6216195;23;20083;-91
2023/02/19 02:00:12;;;;;;;4.15;1.20;;;8.10;99.90;;;;;;6216263;23;20016;-92
2023/02/19 02:02:41;;;;;;;7.93;1.20;;;8.10;99.90;;;;;;6214801;23;20000;-93
2023/02/19 02:05:14;;;;;;;5.60;1.33;;;8.00;99.90;;;;;;6217961;23;20004;-92
2023/02/19 02:10:24;;;;;;;3.75;0.90;;;7.90;99.90;;;;;;6247599;23;20031;-92
2023/02/19 02:12:52;;;;;;;1.45;0.63;;;7.90;99.90;;;;;;6221453;23;20000;-90
2023/02/19 02:15:18;;;;;;;4.55;0.90;;;7.80;99.90;;;;;;6221473;23;20091;-91
2023/02/19 02:17:50;;;;;;;1.23;0.70;;;7.70;99.90;;;;;;6247794;23;20482;-90
2023/02/19 02:20:34;;;;;;;5.10;0.60;;;7.70;99.90;;;;;;6247863;23;20039;-91
2023/02/19 02:23:25;;;;;;;7.25;0.93;;;7.60;99.90;;;;;;6222140;23;20036;-90
2023/02/19 02:26:06;;;;;;;;;;;7.60;99.90;;;;;;6223226;23;20008;-91
2023/02/19 02:28:56;;;;;;;4.07;0.45;;;7.50;99.90;;;;;;6248984;23;19986;-91
2023/02/19 02:31:31;;;;;;;0.40;0.20;;;7.50;99.90;;;;;;6222486;23;20420;-90
2023/02/19 02:34:09;;;;;;;2.42;0.60;;;7.50;99.90;;;;;;6231410;23;20052;-91
2023/02/19 02:36:39;;;;;;;4.88;0.85;;;7.40;99.90;;;;;;6243793;23;20016;-91
2023/02/19 02:39:10;;;;;;;3.53;0.43;;;7.40;99.90;;;;;;6230345;23;20439;-90
2023/02/19 02:41:45;;;;;;;2.13;0.55;;;7.30;99.90;;;;;;6221370;23;20026;-90
2023/02/19 02:44:11;;;;;;;1.90;0.40;;;7.30;99.90;;;;;;6221064;23;20008;-90
2023/02/19 02:46:43;;;;;;;4.70;0.68;;;7.30;99.90;;;;;;6220674;23;20004;-90
2023/02/19 02:49:16;;;;;;;3.88;0.90;;;7.20;99.90;;;;;;6220792;23;20061;-90
2023/02/19 02:51:48;;;;;;;4.53;0.70;;;7.20;99.90;;;;;;6220849;23;20004;-91
2023/02/19 02:57:03;;;;;;;4.60;1.10;;;7.20;99.90;;;;;;6247540;23;20030;-90
2023/02/19 02:59:35;;;;;;;6.28;0.80;;;7.20;99.90;;;;;;6220649;23;20016;-91
2023/02/19 03:02:18;;;;;;;6.38;1.05;;;7.10;99.90;;;;;;6247644;23;20503;-90
2023/02/19 03:08:06;;;;;;;2.17;0.32;;;7.00;99.90;;;;;;6247848;23;20066;-90
2023/02/19 03:10:46;;;;;;;8.23;0.80;;;6.90;99.90;;;;;;6220559;23;20008;-90
2023/02/19 03:19:18;;;;;;;7.50;1.00;;;6.80;99.90;;;;;;6247352;23;20031;-90
2023/02/19 03:21:58;;;;;;;5.78;0.60;;;6.70;99.90;;;;;;6221130;23;20390;-90
2023/02/19 03:27:18;;;;;;;4.22;0.68;;;6.70;99.90;;;;;;6247382;23;20034;-91
2023/02/19 03:29:47;;;;;;;2.17;0.80;;;6.70;99.90;;;;;;6220688;23;20075;-92
2023/02/19 03:32:22;;;;;;;5.68;0.90;;;6.60;99.90;;;;;;6220713;23;20039;-89
2023/02/19 03:35:04;;;;;;;3.38;0.65;;;6.60;99.90;;;;;;6220653;23;20004;-90
2023/02/19 03:38:06;;;;;;;4.32;0.70;;;6.60;99.90;;;;;;6247336;23;19997;-90
2023/02/19 03:40:48;;;;;;;3.92;0.50;;;6.50;99.90;;;;;;6142760;23;20340;-90
2023/02/19 03:43:22;;;;;;;6.15;0.60;;;6.50;99.90;;;;;;6220909;23;20008;-89
2023/02/19 03:46:01;;;;;;;2.28;0.40;;;6.50;99.90;;;;;;6247197;23;20000;-89
2023/02/19 03:48:34;;;;;;;2.83;0.60;;;6.40;99.90;;;;;;6220322;23;20086;-90
2023/02/19 03:51:16;;;;;;;1.75;0.30;;;6.40;99.90;;;;;;6220212;23;20004;-90
2023/02/19 03:54:04;;;;;;;4.15;0.73;;;6.40;99.90;;;;;;6246618;23;20069;-90
2023/02/19 03:57:18;;;;;;;2.92;0.55;;;6.40;99.90;;;;;;6220537;23;20050;-90
2023/02/19 03:59:59;;;;;;;6.72;0.95;;;6.30;99.90;;;;;;6214058;23;20012;-90
2023/02/19 04:02:31;;;;;;;6.60;0.80;;;6.30;99.90;;;;;;6220491;23;20032;-90
2023/02/19 04:05:10;;;;;;;1.75;0.50;;;6.30;99.90;;;;;;6246896;23;19997;-91
2023/02/19 04:07:46;;;;;;;5.55;0.60;;;6.30;99.90;;;;;;6220392;23;20050;-91
2023/02/19 04:10:13;;;;;;;4.03;0.82;;;6.30;99.90;;;;;;6220084;23;20019;-90
2023/02/19 04:12:43;;;;;;;6.43;0.60;;;6.30;99.90;;;;;;6246802;23;20015;-92
2023/02/19 04:15:19;;;;;;;6.28;0.80;;;6.30;99.90;;;;;;6247145;23;20000;-90
2023/02/19 04:17:52;;;;;;;6.15;0.60;;;6.20;99.90;;;;;;6220376;23;20066;-91
2023/02/19 04:20:19;;;;;;;6.00;0.52;;;6.30;99.90;;;;;;6220050;23;20016;-91
2023/02/19 04:22:46;;;;;;;5.50;0.77;;;6.20;99.90;;;;;;6246522;23;20004;-90
2023/02/19 04:25:12;;;;;;;2.22;0.70;;;6.20;99.90;;;;;;6220252;23;20004;-90
2023/02/19 04:27:38;;;;;;;8.15;0.70;;;6.20;99.90;;;;;;6220117;23;20015;-89
2023/02/19 04:30:10;;;;;;;2.88;0.68;;;6.20;99.90;;;;;;6247878;23;20026;-90
2023/02/19 04:32:35;;;;;;;2.08;0.40;;;6.20;99.90;;;;;;6235121;23;20087;-91
2023/02/19 04:35:01;;;;;;;1.65;0.47;;;6.20;99.90;;;;;;6234335;23;20000;-92
2023/02/19 04:37:27;;;;;;;1.40;0.45;;;6.20;99.90;;;;;;6220490;23;20066;-91
2023/02/19 04:39:52;;;;;;;7.88;0.65;;;6.20;99.90;;;;;;6220129;23;20097;-91
2023/02/19 04:42:18;;;;;;;4.45;0.90;;;6.20;99.90;;;;;;6246622;23;20012;-91
2023/02/19 04:44:43;;;;;;;2.53;0.68;;;6.20;99.90;;;;;;6219832;23;20008;-90
2023/02/19 04:47:09;;;;;;;3.40;0.80;;;6.20;99.90;;;;;;6220269;23;20083;-89
2023/02/19 04:49:35;;;;;;;5.55;1.27;;;6.20;99.90;;;;;;6219842;23;20009;-92
2023/02/19 04:52:00;;;;;;;3.22;0.73;;;6.20;99.90;;;;;;6219698;23;20004;-89
2023/02/19 04:54:26;;;;;;;5.60;0.60;;;6.20;99.90;;;;;;6219559;23;20015;-90
2023/02/19 04:56:52;;;;;;;3.35;0.70;;;6.20;99.90;;;;;;6219895;23;20008;-90
2023/02/19 04:59:17;;;;;;;8.25;1.77;;;6.20;99.90;;;;;;6219613;23;20012;-89
2023/02/19 05:01:43;;;;;;;2.53;0.50;;;6.20;99.90;;;;;;6219824;23;20004;-88
2023/02/19 05:04:10;;;;;;;3.30;1.00;;;6.20;99.90;;;;;;6219782;23;20405;-90
2023/02/19 05:06:36;;;;;;;7.80;0.70;;;6.20;99.90;;;;;;6219589;23;20014;-91
2023/02/19 05:09:01;;;;;;;0.68;0.45;;;6.20;99.90;;;;;;6219415;23;20044;-91
2023/02/19 05:11:27;;;;;;;3.45;0.77;;;6.20;99.90;;;;;;6219635;23;20031;-91
2023/02/19 05:13:54;;;;;;;3.60;0.68;;;6.20;99.90;;;;;;6247279;23;20428;-90
2023/02/19 05:16:20;;;;;;;5.07;0.50;;;6.20;99.90;;;;;;6247053;23;20001;-91
2023/02/19 05:18:46;;;;;;;4.90;0.65;;;6.20;99.90;;;;;;6246282;23;20011;-89
2023/02/19 05:21:12;;;;;;;3.92;0.45;;;6.20;99.90;;;;;;6219286;23;20015;-91
2023/02/19 05:23:38;;;;;;;4.82;0.63;;;6.20;99.90;;;;;;6219513;23;20420;-90
2023/02/19 05:26:10;;;;;;;6.28;0.80;;;6.20;99.90;;;;;;6221148;23;20015;-91
2023/02/19 05:28:37;;;;;;;5.68;0.85;;;6.20;99.90;;;;;;6222204;23;20012;-91
2023/02/19 05:31:07;;;;;;;6.10;0.77;;;6.20;99.90;;;;;;6220042;23;20000;-91
2023/02/19 05:33:34;;;;;;;2.50;0.57;;;6.20;99.90;;;;;;6246631;23;20084;-90
2023/02/19 05:36:09;;;;;;;3.33;0.90;;;6.20;99.90;;;;;;6219951;23;20011;-90
2023/02/19 05:38:35;;;;;;;4.70;0.70;;;6.10;99.90;;;;;;6220137;23;20570;-89
2023/02/19 05:41:15;;;;;;;5.78;1.00;;;6.20;99.90;;;;;;6219720;23;20020;-91
2023/02/19 05:43:42;;;;;;;4.20;0.90;;;6.10;99.90;;;;;;6246525;23;19997;-90
2023/02/19 05:46:10;;;;;;;4.38;0.52;;;6.10;99.90;;;;;;6246523;23;20089;-91
2023/02/19 05:48:36;;;;;;;4.85;1.00;;;6.10;99.90;;;;;;6246476;23;20027;-91
2023/02/19 05:51:04;;;;;;;4.00;0.82;;;6.10;99.90;;;;;;6219672;23;20424;-90
2023/02/19 05:53:30;;;;;;;5.57;0.90;;;6.00;99.90;;;;;;6219631;23;20087;-91
2023/02/19 05:55:56;;;;;;;6.18;0.80;;;6.00;99.90;;;;;;6219930;23;20016;-91
2023/02/19 05:58:22;;;;;;;7.05;0.77;;;6.00;99.90;;;;;;6220102;23;20054;-90
2023/02/19 06:00:47;;;;;;;1.45;0.52;;;6.00;99.90;;;;;;6247221;23;20004;-92
2023/02/19 06:03:13;;;;;;;5.38;0.70;;;6.00;99.90;;;;;;6220877;23;20007;-90
2023/02/19 06:05:39;;;;;;;3.15;0.70;;;5.90;99.90;;;;;;6251249;23;20000;-91
2023/02/19 06:08:04;;;;;;;1.17;0.63;;;6.00;99.90;;;;;;6225715;23;20028;-91
2023/02/19 06:10:30;;;;;;;5.07;0.60;;;5.90;99.90;;;;;;6249916;23;20031;-91
2023/02/19 06:12:55;;;;;;;5.88;0.70;;;5.90;99.90;;;;;;6246615;23;20010;-91
2023/02/19 06:15:21;;;;;;;7.78;0.82;;;5.90;99.90;;;;;;6246377;23;19996;-91
2023/02/19 06:17:47;;;;;;;3.55;0.75;;;5.90;99.90;;;;;;6219845;23;20332;-91
2023/02/19 06:20:13;;;;;;;3.15;0.55;;;5.90;99.90;;;;;;6219778;23;20050;-90
2023/02/19 06:22:39;;;;;;;4.65;0.65;;;5.90;99.90;;;;;;6247020;23;20506;-91
2023/02/19 06:25:06;;;;;;;7.47;0.85;;;5.80;99.90;;;;;;6220169;23;20004;-91
2023/02/19 06:27:33;;;;;;;5.05;0.68;;;5.80;99.90;;;;;;6220305;23;20008;-90
2023/02/19 06:29:58;;;;;;;3.53;0.63;;;5.80;99.90;;;;;;6246907;23;20008;-89
2023/02/19 06:32:24;;;;;;;4.20;0.90;;;5.80;99.90;;;;;;6246743;23;20008;-90
2023/02/19 06:34:50;;;;;;;2.60;1.00;;;5.70;99.90;;;;;;6246531;23;20008;-91
2023/02/19 06:37:16;;;;;;;2.72;0.90;;;5.70;99.90;;;;;;6221614;23;20026;-89
2023/02/19 06:39:42;;;;;;;5.70;0.80;;;5.70;99.90;;;;;;6221461;23;20004;-88
2023/02/19 06:42:08;;;;;;;7.30;0.70;;;5.70;99.90;;;;;;6221678;23;20432;-91
2023/02/19 06:44:33;;;;;;;3.80;0.70;;;5.60;99.90;;;;;;6221519;23;20004;-90
2023/02/19 06:46:59;;;;;;;5.38;0.80;;;5.60;99.90;;;;;;6221510;23;20386;-90
2023/02/19 06:49:25;;;;;;;5.00;0.90;;;5.60;99.90;;;;;;6247947;23;20035;-90
2023/02/19 06:51:51;;;;;;;4.45;0.93;;;5.60;99.90;;;;;;6248019;23;20000;-90
2023/02/19 06:54:16;;;;;;;9.23;1.27;;;5.50;99.90;;;;;;6221416;23;20099;-90
2023/02/19 06:56:42;;;;;;;3.05;0.70;;;5.50;99.90;;;;;;6248575;23;20405;-91
2023/02/19 06:59:11;;;;;;;5.03;1.15;;;5.50;99.90;;;;;;6221418;23;20015;-91
2023/02/19 07:01:38;;;;;;;3.83;0.77;;;5.50;99.90;;;;;;6221581;23;20011;-91
2023/02/19 07:04:04;;;;;;;3.53;0.98;;;5.50;99.90;;;;;;6221402;23;20340;-92
2023/02/19 07:06:30;;;;;;;1.40;0.60;;;5.40;99.90;;;;;;6221826;23;20004;-91
2023/02/19 07:08:57;;;;;;;4.45;0.60;;;5.40;99.90;;;;;;6221139;23;20045;-91
2023/02/19 07:11:24;;;;;;;6.93;1.10;;;5.40;99.90;;;;;;6248243;23;20004;-92
2023/02/19 07:13:58;;;;;;;10.88;0.70;;;5.40;99.90;;;;;;6221177;23;20272;-90
2023/02/19 07:16:24;;;;;;;2.47;0.85;;;5.40;99.90;;;;;;6221199;23;20008;-91
2023/02/19 07:18:50;;;;;;;3.92;0.80;;;5.40;99.90;;;;;;6248082;23;20000;-92
2023/02/19 07:21:16;;;;;;;4.18;0.80;;;5.40;99.90;;;;;;6220837;23;20083;-91
2023/02/19 07:23:43;;;;;;;2.65;0.52;;;5.40;99.90;;;;;;6220825;23;20011;-92
2023/02/19 07:26:11;;;;;;;4.72;1.20;;;5.40;99.90;;;;;;6221242;23;20066;-92
2023/02/19 07:28:38;;;;;;;6.47;0.60;;;5.40;99.90;;;;;;6221009;23;20525;-91
2023/02/19 07:31:04;;;;;;;3.92;0.52;;;5.40;99.90;;;;;;6221198;23;20004;-89
2023/02/19 07:33:30;;;;;;;4.13;1.40;;;5.40;99.90;;;;;;6221222;23;20036;-89
2023/02/19 07:35:56;;;;;;;5.70;0.63;;;5.40;99.90;;;;;;6247776;23;20071;-90
2023/02/19 07:38:23;;;;;;;7.50;0.68;;;5.40;99.90;;;;;;6259753;23;20003;-92
2023/02/19 07:41:00;;;;;;;4.75;1.40;;;5.40;99.90;;;;;;6253585;23;20107;-91
2023/02/19 07:43:29;;;;;;;6.97;0.73;;;5.40;99.90;;;;;;6260280;23;20026;-91
2023/02/19 07:45:54;;;;;;;7.97;0.82;;;5.40;99.90;;;;;;6223312;23;20004;-91
2023/02/19 07:48:21;;;;;;;5.40;0.80;;;5.40;99.90;;;;;;6249667;23;20050;-91
2023/02/19 07:51:06;;;;;;;3.60;0.73;;;5.50;99.90;;;;;;6222248;23;20012;-92
2023/02/19 07:53:33;;;;;;;7.25;0.93;;;5.50;99.90;;;;;;6248452;23;20000;-91
2023/02/19 07:56:00;;;;;;;5.65;0.70;;;5.50;99.90;;;;;;6248223;23;20001;-91
2023/02/19 07:58:27;;;;;;;7.13;0.80;;;5.60;99.90;;;;;;6221243;23;20011;-92
2023/02/19 08:00:52;;;;;;;8.48;1.90;;;5.50;99.90;;;;;;6220764;23;20111;-91
2023/02/19 08:03:18;;;;;;;5.57;0.75;;;5.60;99.90;;;;;;6222259;23;20000;-92
2023/02/19 08:05:44;;;;;;;6.38;1.23;;;5.60;99.90;;;;;;6221831;23;20019;-92
2023/02/19 08:08:14;;;;;;;6.03;0.80;;;5.70;99.90;;;;;;6248044;23;20250;-90
2023/02/19 08:13:25;;;;;;;9.77;2.65;;;5.80;99.90;;;;;;6247654;23;20089;-90
2023/02/19 08:15:53;;;;;;;6.80;1.30;;;5.80;99.90;;;;;;6220519;23;20011;-88
2023/02/19 08:18:22;;;;;;;9.95;1.10;;;5.90;99.90;;;;;;6220557;23;20010;-89
2023/02/19 08:20:47;;;;;;;17.48;3.03;;;5.90;99.90;;;;;;6220329;23;20041;-89
2023/02/19 08:23:14;;;;;;;4.10;1.23;;;5.90;99.90;;;;;;6247009;23;20079;-89
2023/02/19 08:25:41;;;;;;;5.93;1.05;;;6.00;99.90;;;;;;6220372;23;20008;-89
2023/02/19 08:28:08;;;;;;;9.63;1.52;;;6.00;99.90;;;;;;6246739;23;20054;-90
2023/02/19 08:30:34;;;;;;;6.50;1.00;;;6.00;99.90;;;;;;6219852;23;20004;-89
2023/02/19 08:33:01;;;;;;;9.48;1.00;;;6.10;99.90;;;;;;6247073;23;20006;-89
2023/02/19 08:35:27;;;;;;;8.90;1.75;;;6.10;99.90;;;;;;6220497;23;20008;-90
2023/02/19 08:37:57;;;;;;;9.32;1.10;;;6.10;99.90;;;;;;6220308;23;20466;-89
2023/02/19 08:40:24;;;;;;;10.75;1.27;;;6.10;99.90;;;;;;6247287;23;20015;-89
2023/02/19 08:42:49;;;;;;;7.75;1.63;;;6.20;99.90;;;;;;6220356;23;20004;-89
2023/02/19 08:45:15;;;;;;;12.63;1.58;;;6.20;99.90;;;;;;6220232;23;20011;-89
2023/02/19 08:47:41;;;;;;;8.50;1.48;;;6.20;99.90;;;;;;6220063;23;20416;-90
2023/02/19 08:50:07;;;;;;;11.90;1.85;;;6.20;99.90;;;;;;6221217;23;20000;-89
2023/02/19 08:52:34;;;;;;;6.75;1.83;;;6.30;99.90;;;;;;6247361;23;20007;-90
2023/02/19 08:55:00;;;;;;;4.88;1.80;;;6.30;99.90;;;;;;6220718;23;20011;-91
2023/02/19 08:57:27;;;;;;;11.80;2.00;;;6.20;99.90;;;;;;6220292;23;20055;-90
2023/02/19 08:59:55;;;;;;;10.60;2.05;;;6.20;99.90;;;;;;6220221;23;20420;-90
2023/02/19 09:02:21;;;;;;;12.52;2.13;;;6.30;99.90;;;;;;6220090;23;20007;-91
2023/02/19 09:04:46;;;;;;;9.90;2.45;;;6.30;99.90;;;;;;6246978;23;20003;-90
2023/02/19 09:07:12;;;;;;;8.38;2.00;;;6.40;99.90;;;;;;6219862;23;20054;-90
2023/02/19 09:09:39;;;;;;;10.38;2.22;;;6.30;99.90;;;;;;6220191;23;20016;-90
2023/02/19 09:12:09;;;;;;;10.35;1.85;;;6.40;99.90;;;;;;6247398;23;20015;-91
2023/02/19 09:14:36;;;;;;;8.20;1.90;;;6.40;99.90;;;;;;6220766;23;20066;-91
2023/02/19 09:17:02;;;;;;;10.23;2.13;;;6.50;99.90;;;;;;6220964;23;20004;-90
2023/02/19 09:19:29;;;;;;;11.23;2.33;;;6.50;99.90;;;;;;6222639;23;20008;-90
2023/02/19 09:21:55;;;;;;;6.97;2.20;;;6.50;99.90;;;;;;6221455;23;20031;-90
2023/02/19 09:24:21;;;;;;;8.07;1.90;;;6.50;99.90;;;;;;6222361;23;20451;-90
2023/02/19 09:26:51;;;;;;;10.05;1.83;;;6.50;99.90;;;;;;6235637;23;20008;-89
2023/02/19 09:29:17;;;;;;;10.65;3.30;;;6.60;99.90;;;;;;6267726;23;20019;-90
2023/02/19 09:31:43;;;;;;;13.52;2.63;;;6.70;99.90;;;;;;6255548;23;19993;-89
2023/02/19 09:34:08;;;;;;;5.13;1.40;;;6.70;99.90;;;;;;6256340;23;20006;-91
2023/02/19 09:36:34;;;;;;;6.10;1.88;;;6.80;99.90;;;;;;6260642;23;20059;-91
2023/02/19 09:39:00;;;;;;;6.85;1.67;;;6.80;99.90;;;;;;6248319;23;20000;-90
2023/02/19 09:41:45;;;;;;;8.20;1.67;;;6.90;99.90;;;;;;6220323;23;20016;-90
2023/02/19 09:44:14;;;;;;;4.07;1.35;;;6.90;99.90;;;;;;6221166;23;20015;-90
2023/02/19 09:46:49;;;;;;;7.47;1.60;;;7.00;99.90;;;;;;6220819;23;20000;-89
2023/02/19 09:49:40;;;;;;;6.18;1.45;;;7.00;99.90;;;;;;6221252;23;20087;-91
2023/02/19 09:52:14;;;;;;;9.23;1.92;;;7.00;99.90;;;;;;6221040;23;20008;-89
2023/02/19 09:54:41;;;;;;;8.05;1.77;;;7.10;99.90;;;;;;6221003;23;20000;-90
2023/02/19 09:57:14;;;;;;;5.88;3.33;;;7.10;99.90;;;;;;6221305;23;20034;-92
2023/02/19 09:59:53;;;;;;;7.68;1.30;;;7.10;99.90;;;;;;6220804;23;20078;-91
2023/02/19 10:02:24;;;;;;;6.75;1.40;;;7.20;99.90;;;;;;6220697;23;20427;-91
2023/02/19 10:04:51;;;;;;;6.55;1.30;;;7.20;99.90;;;;;;6252692;23;20000;-91
2023/02/19 10:07:27;;;;;;;3.63;1.42;;;7.30;99.90;;;;;;6255548;23;20008;-91
2023/02/19 10:09:58;;;;;;;5.38;1.42;;;7.30;99.90;;;;;;6229598;23;20012;-91
2023/02/19 10:12:27;;;;;;;6.10;1.10;;;7.30;99.90;;;;;;6223978;23;20008;-91
2023/02/19 10:15:00;;;;;;;9.65;1.60;;;7.30;99.90;;;;;;6225556;23;20079;-91
2023/02/19 10:17:30;;;;;;;9.32;2.25;;;7.40;99.90;;;;;;6226698;23;20039;-90
2023/02/19 10:19:56;;;;;;;6.07;1.27;;;7.40;99.90;;;;;;6250590;23;20505;-92
2023/02/19 10:22:23;;;;;;;4.22;1.52;;;7.40;99.90;;;;;;6250103;23;20075;-90
2023/02/19 10:24:53;;;;;;;5.35;1.65;;;7.40;99.90;;;;;;6248527;23;20008;-91
2023/02/19 10:27:18;;;;;;;3.47;1.45;;;7.50;99.90;;;;;;6222533;23;20439;-89
2023/02/19 10:29:46;;;;;;;5.03;1.23;;;7.50;99.90;;;;;;6221176;23;20085;-91
2023/02/19 10:32:22;;;;;;;4.15;1.13;;;7.50;99.90;;;;;;6223184;23;20451;-89
2023/02/19 10:35:08;;;;;;;3.83;1.60;;;7.50;99.90;;;;;;6248691;23;20431;-90
2023/02/19 10:37:35;;;;;;;3.33;1.13;;;7.60;99.90;;;;;;6222347;23;20004;-89
2023/02/19 10:40:01;;;;;;;5.25;1.00;;;7.60;99.90;;;;;;6222161;23;20016;-92
2023/02/19 10:42:27;;;;;;;5.50;0.82;;;7.60;99.90;;;;;;6248983;23;20030;-91
2023/02/19 10:44:57;;;;;;;4.65;1.30;;;7.70;99.90;;;;;;6248501;23;20034;-90
2023/02/19 10:47:25;;;;;;;12.93;3.73;;;7.70;99.90;;;;;;6248434;23;19996;-90
2023/02/19 10:49:55;;;;;;;10.40;3.45;;;7.70;99.90;;;;;;6249092;23;20004;-89
2023/02/19 10:52:30;;;;;;;5.20;1.63;;;7.80;99.90;;;;;;6222075;23;20008;-89
2023/02/19 10:55:19;;;;;;;6.05;2.60;;;7.90;99.90;;;;;;6247764;23;20078;-90
2023/02/19 10:57:45;;;;;;;6.95;1.85;;;8.00;99.90;;;;;;6247727;23;20024;-91
2023/02/19 11:00:14;;;;;;;3.83;1.10;;;8.10;99.90;;;;;;6221094;23;20146;-88
2023/02/19 11:02:40;;;;;;;7.00;1.42;;;8.10;99.90;;;;;;6248111;23;20134;-91
2023/02/19 11:05:15;;;;;;;4.93;1.20;;;8.20;99.90;;;;;;6247112;23;20008;-91
2023/02/19 11:07:54;;;;;;;3.47;1.45;;;8.30;99.90;;;;;;6247507;23;20080;-90
2023/02/19 11:10:26;;;;;;;5.47;1.10;;;8.30;99.90;;;;;;6220796;23;20019;-90
2023/02/19 11:12:58;;;;;;;3.83;1.20;;;8.40;99.90;;;;;;6248308;23;20004;-92
2023/02/19 11:15:26;;;;;;;3.42;1.38;;;8.40;99.90;;;;;;6221498;23;20007;-91
2023/02/19 11:18:22;;;;;;;9.15;1.23;;;8.30;99.90;;;;;;6221842;23;20004;-91
2023/02/19 11:20:53;;;;;;;3.88;1.38;;;8.30;99.90;;;;;;6208737;23;20509;-90
2023/02/19 11:23:32;;;;;;;4.82;1.80;;;8.30;99.90;;;;;;6248027;23;19996;-91
2023/02/19 11:26:02;;;;;;;5.75;1.90;;;8.30;99.90;;;;;;6222168;23;20087;-91
2023/02/19 11:28:37;;;;;;;3.00;1.65;;;8.30;99.90;;;;;;6248878;23;20058;-89
2023/02/19 11:31:20;;;;;;;4.03;1.90;;;8.30;99.90;;;;;;6252064;23;20028;-90
2023/02/19 11:33:56;;;;;;;4.90;2.35;;;8.30;99.90;;;;;;6223216;23;20042;-89
2023/02/19 11:36:31;;;;;;;6.18;2.83;;;8.30;99.90;;;;;;6220889;23;20082;-90
2023/02/19 11:39:04;;;;;;;5.15;3.92;;;8.30;99.90;;;;;;6220530;23;20062;-88
2023/02/19 11:41:48;;;;;;;6.53;4.20;;;8.30;99.90;;;;;;6220692;23;20072;-89
2023/02/19 11:44:29;;;;;;;7.78;5.20;;;8.40;99.90;;;;;;6247590;23;20005;-90
2023/02/19 11:47:22;;;;;;;11.80;5.93;;;8.40;99.90;;;;;;6248240;23;20443;-90
2023/02/19 11:49:50;;;;;;;9.35;5.60;;;8.40;99.90;;;;;;6247628;23;20000;-89
2023/02/19 11:52:31;;;;;;;8.32;5.75;;;8.40;99.90;;;;;;6220708;23;20008;-90
2023/02/19 11:55:26;;;;;;;5.85;4.70;;;8.50;99.90;;;;;;6219727;23;20023;-90
2023/02/19 11:58:19;;;;;;;9.77;5.47;;;8.50;99.90;;;;;;6208169;23;20027;-89
2023/02/19 12:00:56;;;;;;;9.95;3.75;;;8.60;99.90;;;;;;6219238;23;20020;-89
2023/02/19 12:03:43;;;;;;;5.40;3.15;;;8.70;99.90;;;;;;6247604;23;19999;-88
2023/02/19 12:06:22;;;;;;;9.82;4.38;;;8.70;99.90;;;;;;6220511;23;20008;-89
2023/02/19 12:08:59;;;;;;;5.47;3.15;;;8.80;99.90;;;;;;6220545;23;20450;-88
2023/02/19 12:11:39;;;;;;;6.40;2.95;;;8.80;99.90;;;;;;6220796;23;20035;-88
2023/02/19 12:14:33;;;;;;;6.15;4.00;;;8.80;99.90;;;;;;6247576;23;20004;-89
2023/02/19 12:17:25;;;;;;;9.43;4.38;;;8.80;99.90;;;;;;6215163;23;20020;-89
2023/02/19 12:20:12;;;;;;;8.75;3.80;;;9.00;99.90;;;;;;6247525;23;20032;-91
2023/02/19 12:22:50;;;;;;;9.75;3.83;;;9.20;99.90;;;;;;6252182;23;20000;-91
2023/02/19 12:25:32;;;;;;;8.77;4.32;;;9.30;99.90;;;;;;6223650;23;20546;-90
2023/02/19 12:28:06;;;;;;;5.53;2.63;;;9.50;99.90;;;;;;6221746;23;20004;-89
2023/02/19 12:30:41;;;;;;;8.85;3.65;;;9.70;99.90;;;;;;6221193;23;20062;-90
2023/02/19 12:33:21;;;;;;;4.50;3.00;;;10.00;99.90;;;;;;6221520;23;20011;-90
2023/02/19 12:35:57;;;;;;;6.90;3.90;;;10.50;99.90;;;;;;6220771;23;20011;-91
2023/02/19 12:38:34;;;;;;;6.25;2.58;;;11.10;99.90;;;;;;6220793;23;20051;-89
2023/02/19 12:41:27;;;;;;;7.30;2.65;;;11.70;99.90;;;;;;6247750;23;20335;-90
2023/02/19 12:44:18;;;;;;;8.15;2.80;;;12.10;99.90;;;;;;6220780;23;20004;-91
2023/02/19 12:46:53;;;;;;;8.02;3.72;;;12.50;99.90;;;;;;6222427;23;20046;-90
2023/02/19 12:49:43;;;;;;;7.40;3.83;;;12.70;99.90;;;;;;6248497;23;20059;-90
2023/02/19 12:52:33;;;;;;;9.00;2.97;;;12.80;99.90;;;;;;6226726;23;20011;-90
2023/02/19 12:55:11;;;;;;;5.43;3.40;;;12.70;99.90;;;;;;6265609;23;20004;-90
2023/02/19 12:57:38;;;;;;;8.02;4.05;;;12.50;99.90;;;;;;6248915;23;20246;-91
2023/02/19 13:00:34;;;;;;;6.20;5.03;;;12.30;99.90;;;;;;6221906;23;20004;-90
2023/02/19 13:03:19;;;;;;;8.65;5.30;;;12.10;99.90;;;;;;6221250;23;20331;-90
2023/02/19 13:06:16;;;;;;;13.15;6.53;;;11.90;99.90;;;;;;6247320;23;19997;-90
2023/02/19 13:08:44;;;;;;;6.78;5.13;;;11.60;99.90;;;;;;6220503;23;20019;-90
2023/02/19 13:11:18;;;;;;;6.70;5.50;;;11.40;99.90;;;;;;6220303;23;20047;-90
2023/02/19 13:13:54;;;;;;;7.13;6.38;;;11.30;99.90;;;;;;6220936;23;20027;-89
2023/02/19 13:16:22;;;;;;;4.80;4.07;;;11.20;99.90;;;;;;6220901;23;20008;-88
2023/02/19 13:18:52;;;;;;;4.45;4.05;;;11.20;99.90;;;;;;6220595;23;20024;-88
2023/02/19 13:24:25;;;;;;;6.35;2.88;;;11.40;99.90;;;;;;6249047;23;20069;-90
2023/02/19 13:27:23;;;;;;;6.80;2.50;;;11.50;99.90;;;;;;6220358;23;20158;-91
2023/02/19 13:30:02;;;;;;;1.90;1.70;;;11.40;99.90;;;;;;6220617;23;20008;-91
2023/02/19 13:32:46;;;;;;;2.55;1.80;;;11.40;99.90;;;;;;6247761;23;19996;-90
2023/02/19 13:35:34;;;;;;;3.85;2.40;;;11.50;99.90;;;;;;6219711;23;20366;-90
2023/02/19 13:38:01;;;;;;;6.43;2.65;;;11.70;99.90;;;;;;6219987;23;20008;-89
2023/02/19 13:40:32;;;;;;;3.45;2.50;;;12.00;99.90;;;;;;6219626;23;20020;-90